createdAt,value
2022-09-27T00:01:23.493Z,1.55
2022-09-27T00:03:55.240Z,1.83
2022-09-27T00:06:31.487Z,1.55
2022-09-27T00:08:59.633Z,1.50
2022-09-27T00:11:35.063Z,2.03
2022-09-27T00:16:32.629Z,2.95
2022-09-27T00:19:01.229Z,2.08
2022-09-27T00:21:30.617Z,2.20
2022-09-27T00:23:59.086Z,2.45
2022-09-27T00:26:27.381Z,1.38
2022-09-27T00:28:54.420Z,1.23
2022-09-27T00:31:23.941Z,1.58
2022-09-27T00:33:53.505Z,1.20
2022-09-27T00:36:22.579Z,1.20
2022-09-27T00:38:50.219Z,1.30
2022-09-27T00:41:19.779Z,1.38
2022-09-27T00:43:57.407Z,1.40
2022-09-27T00:46:37.033Z,1.30
2022-09-27T00:49:17.140Z,1.30
2022-09-27T00:51:48.037Z,1.30
2022-09-27T00:54:17.683Z,1.80
2022-09-27T00:56:45.846Z,1.42
2022-09-27T00:59:20.194Z,1.50
2022-09-27T01:01:49.090Z,2.22
2022-09-27T01:04:22.571Z,2.83
2022-09-27T01:06:49.987Z,1.63
2022-09-27T01:09:17.290Z,1.90
2022-09-27T01:11:54.959Z,1.52
2022-09-27T01:14:38.147Z,1.67
2022-09-27T01:17:17.671Z,1.58
2022-09-27T01:20:21.646Z,0.90
2022-09-27T01:23:28.219Z,1.13
2022-09-27T01:26:14.595Z,1.20
2022-09-27T01:29:07.457Z,1.75
2022-09-27T01:31:46.905Z,2.95
2022-09-27T01:34:29.672Z,3.25
2022-09-27T01:37:10.460Z,3.33
2022-09-27T01:39:40.926Z,2.60
2022-09-27T01:42:36.534Z,2.10
2022-09-27T01:45:15.525Z,2.55
2022-09-27T01:48:15.374Z,1.95
2022-09-27T01:51:08.360Z,1.73
2022-09-27T01:53:45.936Z,1.97
2022-09-27T01:56:45.141Z,2.15
2022-09-27T01:59:29.501Z,1.80
2022-09-27T02:02:09.800Z,1.83
2022-09-27T02:05:01.162Z,2.10
2022-09-27T02:07:39.481Z,2.33
2022-09-27T02:10:12.900Z,1.77
2022-09-27T02:13:15.246Z,1.92
2022-09-27T02:16:03.341Z,1.75
2022-09-27T02:19:10.385Z,1.52
2022-09-27T02:21:59.798Z,1.50
2022-09-27T02:24:42.791Z,2.05
2022-09-27T02:27:18.385Z,1.63
2022-09-27T02:30:01.991Z,1.85
2022-09-27T02:32:30.638Z,2.13
2022-09-27T02:35:01.696Z,2.08
2022-09-27T02:37:28.636Z,1.73
2022-09-27T02:39:55.704Z,1.55
2022-09-27T02:42:23.338Z,1.20
2022-09-27T02:44:50.536Z,1.50
2022-09-27T02:47:41.449Z,1.92
2022-09-27T02:50:30.421Z,1.95
2022-09-27T02:54:06.291Z,1.58
2022-09-27T02:57:14.463Z,1.83
2022-09-27T03:00:12.270Z,1.52
2022-09-27T03:03:22.256Z,1.40
2022-09-27T03:05:59.731Z,1.60
2022-09-27T03:08:39.394Z,1.20
2022-09-27T03:11:06.989Z,1.30
2022-09-27T03:13:45.786Z,2.08
2022-09-27T03:16:22.623Z,0.77
2022-09-27T03:19:01.173Z,1.05
2022-09-27T03:21:54.175Z,1.00
2022-09-27T03:24:21.080Z,1.30
2022-09-27T03:26:48.892Z,1.33
2022-09-27T03:29:17.022Z,1.40
2022-09-27T03:31:48.341Z,1.33
2022-09-27T03:34:30.564Z,0.93
2022-09-27T03:36:57.480Z,1.10
2022-09-27T03:39:24.638Z,1.42
2022-09-27T03:41:51.507Z,1.63
2022-09-27T03:44:18.378Z,2.30
2022-09-27T03:46:45.339Z,1.77
2022-09-27T03:49:12.496Z,1.65
2022-09-27T03:51:39.360Z,1.70
2022-09-27T03:54:06.184Z,1.42
2022-09-27T03:56:33.363Z,1.50
2022-09-27T03:59:01.232Z,1.77
2022-09-27T04:01:30.620Z,1.40
2022-09-27T04:04:11.428Z,1.60
2022-09-27T04:06:38.882Z,1.67
2022-09-27T04:09:06.005Z,1.90
2022-09-27T04:11:51.467Z,2.13
2022-09-27T04:14:18.328Z,1.90
2022-09-27T04:17:05.397Z,2.75
2022-09-27T04:19:49.378Z,1.60
2022-09-27T04:22:16.570Z,1.73
2022-09-27T04:24:44.247Z,1.40
2022-09-27T04:27:27.363Z,1.50
2022-09-27T04:29:54.219Z,1.25
2022-09-27T04:32:45.214Z,1.38
2022-09-27T04:35:48.899Z,1.50
2022-09-27T04:38:16.029Z,1.10
2022-09-27T04:40:45.050Z,1.20
2022-09-27T04:43:12.387Z,1.20
2022-09-27T04:45:39.177Z,1.23
2022-09-27T04:48:06.147Z,1.45
2022-09-27T04:50:36.445Z,1.50
2022-09-27T04:53:04.401Z,1.40
2022-09-27T04:55:31.187Z,1.30
2022-09-27T04:58:00.037Z,1.45
2022-09-27T05:00:28.542Z,1.67
2022-09-27T05:03:03.070Z,1.20
2022-09-27T05:05:39.061Z,1.40
2022-09-27T05:08:05.957Z,1.63
2022-09-27T05:10:53.583Z,1.25
2022-09-27T05:13:20.837Z,1.33
2022-09-27T05:15:47.713Z,1.55
2022-09-27T05:18:39.181Z,1.20
2022-09-27T05:21:24.723Z,1.40
2022-09-27T05:23:51.648Z,1.50
2022-09-27T05:26:18.420Z,1.52
2022-09-27T05:28:47.351Z,1.58
2022-09-27T05:31:14.807Z,1.75
2022-09-27T05:33:42.476Z,1.70
2022-09-27T05:36:27.935Z,2.03
2022-09-27T05:38:54.891Z,1.73
2022-09-27T05:41:23.131Z,1.40
2022-09-27T05:43:50.028Z,1.52
2022-09-27T05:46:17.062Z,1.13
2022-09-27T05:48:44.708Z,1.10
2022-09-27T05:51:11.780Z,1.27
2022-09-27T05:53:40.616Z,1.10
2022-09-27T05:56:14.433Z,1.60
2022-09-27T05:59:01.298Z,1.52
2022-09-27T06:01:39.269Z,1.80
2022-09-27T06:04:24.761Z,1.90
2022-09-27T06:07:17.609Z,1.70
2022-09-27T06:09:44.576Z,1.98
2022-09-27T06:12:12.594Z,2.78
2022-09-27T06:14:40.611Z,2.63
2022-09-27T06:17:12.196Z,2.10
2022-09-27T06:19:43.738Z,2.00
2022-09-27T06:22:11.550Z,1.42
2022-09-27T06:24:45.637Z,1.70
2022-09-27T06:27:20.894Z,1.63
2022-09-27T06:30:06.363Z,1.67
2022-09-27T06:32:44.950Z,1.70
2022-09-27T06:35:20.906Z,1.67
2022-09-27T06:37:48.475Z,1.90
2022-09-27T06:40:15.573Z,1.50
2022-09-27T06:43:15.780Z,2.08
2022-09-27T06:46:05.849Z,1.80
2022-09-27T06:48:48.882Z,1.60
2022-09-27T06:51:17.332Z,1.60
2022-09-27T06:53:44.236Z,1.60
2022-09-27T06:56:11.097Z,1.50
2022-09-27T06:59:07.471Z,1.83
2022-09-27T07:01:44.773Z,1.65
2022-09-27T07:04:26.663Z,1.50
2022-09-27T07:07:06.223Z,2.05
2022-09-27T07:09:40.896Z,1.92
2022-09-27T07:12:08.165Z,2.45
2022-09-27T07:14:35.863Z,1.73
2022-09-27T07:17:04.295Z,1.90
2022-09-27T07:19:36.494Z,2.08
2022-09-27T07:22:03.550Z,1.58
2022-09-27T07:24:30.573Z,1.67
2022-09-27T07:26:57.829Z,1.50
2022-09-27T07:29:26.488Z,1.70
2022-09-27T07:31:54.278Z,1.73
2022-09-27T07:34:21.428Z,1.63
2022-09-27T07:36:48.258Z,1.40
2022-09-27T07:39:15.493Z,1.83
2022-09-27T07:41:43.933Z,1.20
2022-09-27T07:44:13.747Z,1.70
2022-09-27T07:46:53.597Z,1.58
2022-09-27T07:49:28.504Z,1.45
2022-09-27T07:52:20.634Z,1.40
2022-09-27T07:55:25.708Z,1.63
2022-09-27T07:58:06.148Z,1.50
2022-09-27T08:00:33.772Z,1.48
2022-09-27T08:03:05.778Z,1.42
2022-09-27T08:05:34.958Z,1.38
2022-09-27T08:08:02.334Z,1.42
2022-09-27T08:10:32.314Z,1.58
2022-09-27T08:13:02.500Z,1.70
2022-09-27T08:15:31.560Z,1.25
2022-09-27T08:17:58.728Z,1.70
2022-09-27T08:20:46.946Z,1.50
2022-09-27T08:23:34.521Z,1.63
2022-09-27T08:26:24.436Z,1.73
2022-09-27T08:28:55.241Z,1.38
2022-09-27T08:31:26.010Z,1.48
2022-09-27T08:33:55.636Z,1.40
2022-09-27T08:36:24.077Z,2.10
2022-09-27T08:38:52.076Z,1.85
2022-09-27T08:41:42.419Z,1.70
2022-09-27T08:44:20.854Z,1.60
2022-09-27T08:47:16.548Z,1.52
2022-09-27T08:49:59.735Z,2.08
2022-09-27T08:52:39.913Z,1.42
2022-09-27T08:55:38.564Z,1.60
2022-09-27T08:58:28.446Z,1.60
2022-09-27T09:00:59.335Z,1.58
2022-09-27T09:03:31.874Z,1.30
2022-09-27T09:06:17.106Z,1.52
2022-09-27T09:09:02.762Z,2.88
2022-09-27T09:12:43.603Z,1.80
2022-09-27T09:15:24.424Z,1.08
2022-09-27T09:18:16.372Z,1.33
2022-09-27T09:21:20.486Z,1.63
2022-09-27T09:24:00.304Z,1.40
2022-09-27T09:26:34.835Z,1.50
2022-09-27T09:29:21.743Z,1.87
2022-09-27T09:32:18.733Z,1.33
2022-09-27T09:37:24.634Z,1.30
2022-09-27T09:40:08.882Z,1.55
2022-09-27T09:42:49.994Z,1.42
2022-09-27T09:45:33.180Z,1.20
2022-09-27T09:48:07.716Z,1.50
2022-09-27T09:50:54.983Z,1.30
2022-09-27T09:53:28.033Z,1.67
2022-09-27T09:56:04.908Z,1.40
2022-09-27T09:58:46.389Z,1.38
2022-09-27T10:01:26.263Z,1.60
2022-09-27T10:03:56.166Z,1.40
2022-09-27T10:06:25.936Z,1.55
2022-09-27T10:08:55.825Z,1.20
2022-09-27T10:11:45.298Z,1.58
2022-09-27T10:14:21.505Z,1.65
2022-09-27T10:16:58.589Z,2.00
2022-09-27T10:19:30.471Z,1.70
2022-09-27T10:22:31.151Z,1.95
2022-09-27T10:25:07.968Z,1.70
2022-09-27T10:27:46.304Z,1.50
2022-09-27T10:30:28.957Z,2.03
2022-09-27T10:33:00.447Z,1.85
2022-09-27T10:35:45.188Z,1.83
2022-09-27T10:38:24.393Z,1.80
2022-09-27T10:40:58.879Z,1.63
2022-09-27T10:43:35.159Z,1.88
2022-09-27T10:46:25.887Z,1.80
2022-09-27T10:49:22.410Z,2.28
2022-09-27T10:51:55.440Z,1.65
2022-09-27T10:54:28.672Z,2.20
2022-09-27T10:57:20.006Z,2.20
2022-09-27T10:59:55.607Z,1.50
2022-09-27T11:02:24.935Z,2.00
2022-09-27T11:05:13.903Z,1.55
2022-09-27T11:07:57.116Z,1.52
2022-09-27T11:10:39.596Z,2.20
2022-09-27T11:13:08.158Z,2.85
2022-09-27T11:16:17.232Z,2.40
2022-09-27T11:19:10.893Z,2.17
2022-09-27T11:21:50.294Z,2.42
2022-09-27T11:25:00.725Z,1.67
2022-09-27T11:27:48.548Z,2.10
2022-09-27T11:30:20.063Z,2.35
2022-09-27T11:33:01.576Z,2.28
2022-09-27T11:35:59.905Z,2.08
2022-09-27T11:38:53.448Z,2.15
2022-09-27T11:41:30.083Z,2.88
2022-09-27T11:44:17.794Z,2.55
2022-09-27T11:46:56.289Z,4.82
2022-09-27T11:50:01.696Z,6.80
2022-09-27T11:52:34.997Z,2.13
2022-09-27T11:55:29.213Z,2.67
2022-09-27T11:58:16.612Z,4.90
2022-09-27T12:01:17.327Z,2.58
2022-09-27T12:03:47.400Z,2.63
2022-09-27T12:06:24.286Z,1.58
2022-09-27T12:09:16.259Z,1.90
2022-09-27T12:12:00.954Z,2.00
2022-09-27T12:14:39.492Z,1.65
2022-09-27T12:17:14.072Z,1.92
2022-09-27T12:19:52.002Z,1.80
2022-09-27T12:22:58.571Z,1.65
2022-09-27T12:25:40.950Z,1.15
2022-09-27T12:28:27.992Z,1.13
2022-09-27T12:31:27.338Z,1.13
2022-09-27T12:34:09.576Z,1.13
2022-09-27T12:36:43.917Z,1.20
2022-09-27T12:39:22.805Z,1.27
2022-09-27T12:42:02.337Z,1.77
2022-09-27T12:44:45.908Z,1.80
2022-09-27T12:47:23.175Z,1.50
2022-09-27T12:50:01.009Z,1.92
2022-09-27T12:52:33.881Z,2.13
2022-09-27T12:55:11.007Z,2.30
2022-09-27T12:58:07.789Z,1.85
2022-09-27T13:01:00.964Z,1.88
2022-09-27T13:04:03.664Z,1.58
2022-09-27T13:06:57.808Z,1.52
2022-09-27T13:09:33.944Z,1.40
2022-09-27T13:12:19.130Z,1.60
2022-09-27T13:14:54.777Z,1.50
2022-09-27T13:17:44.708Z,1.15
2022-09-27T13:20:31.982Z,2.15
2022-09-27T13:23:20.157Z,2.13
2022-09-27T13:26:00.822Z,1.88
2022-09-27T13:28:58.440Z,1.95
2022-09-27T13:31:53.783Z,2.33
2022-09-27T13:34:42.392Z,1.77
2022-09-27T13:37:36.847Z,1.92
2022-09-27T13:40:21.669Z,1.70
2022-09-27T13:43:10.959Z,2.05
2022-09-27T13:45:57.392Z,1.63
2022-09-27T13:48:28.292Z,1.20
2022-09-27T13:51:27.301Z,1.08
2022-09-27T13:54:07.994Z,1.80
2022-09-27T13:56:38.053Z,1.33
2022-09-27T13:59:12.220Z,1.73
2022-09-27T14:02:13.526Z,1.33
2022-09-27T14:04:49.777Z,1.65
2022-09-27T14:07:20.897Z,1.10
2022-09-27T14:09:53.078Z,1.10
2022-09-27T14:12:39.124Z,1.00
2022-09-27T14:15:19.476Z,1.40
2022-09-27T14:17:47.238Z,1.13
2022-09-27T14:20:41.777Z,1.45
2022-09-27T14:23:23.389Z,1.35
2022-09-27T14:25:55.324Z,1.40
2022-09-27T14:28:44.457Z,1.90
2022-09-27T14:31:22.252Z,1.33
2022-09-27T14:34:13.127Z,1.13
2022-09-27T14:37:17.945Z,1.40
2022-09-27T14:39:58.375Z,1.88
2022-09-27T14:42:36.421Z,1.45
2022-09-27T14:45:21.053Z,1.30
2022-09-27T14:47:49.847Z,1.55
2022-09-27T14:50:30.456Z,1.58
2022-09-27T14:53:00.874Z,1.48
2022-09-27T14:55:30.683Z,1.98
2022-09-27T14:58:00.218Z,1.58
2022-09-27T15:00:33.888Z,1.75
2022-09-27T15:03:04.800Z,2.00
2022-09-27T15:05:35.731Z,2.03
2022-09-27T15:08:06.003Z,1.67
2022-09-27T15:10:35.360Z,1.27
2022-09-27T15:13:05.157Z,1.83
2022-09-27T15:15:39.147Z,1.70
2022-09-27T15:18:44.401Z,1.73
2022-09-27T15:21:15.111Z,1.48
2022-09-27T15:23:46.008Z,1.70
2022-09-27T15:26:38.455Z,1.95
2022-09-27T15:29:05.976Z,1.70
2022-09-27T15:31:36.637Z,1.63
2022-09-27T15:34:07.450Z,2.20
2022-09-27T15:36:55.488Z,1.85
2022-09-27T15:39:33.174Z,1.63
2022-09-27T15:42:09.718Z,1.90
2022-09-27T15:44:42.870Z,1.83
2022-09-27T15:47:40.131Z,1.42
2022-09-27T15:50:16.235Z,1.70
2022-09-27T15:52:45.324Z,1.75
2022-09-27T15:55:13.144Z,2.95
2022-09-27T15:57:41.186Z,1.92
2022-09-27T16:00:13.703Z,2.28
2022-09-27T16:02:40.522Z,2.22
2022-09-27T16:05:07.590Z,2.00
2022-09-27T16:07:34.879Z,2.45
2022-09-27T16:10:01.959Z,1.80
2022-09-27T16:12:31.234Z,2.15
2022-09-27T16:14:58.109Z,1.92
2022-09-27T16:17:24.964Z,2.13
2022-09-27T16:19:51.822Z,2.10
2022-09-27T16:22:18.777Z,1.85
2022-09-27T16:24:46.124Z,1.55
2022-09-27T16:27:12.997Z,2.17
2022-09-27T16:29:44.086Z,1.92
2022-09-27T16:32:11.198Z,1.92
2022-09-27T16:34:38.209Z,2.42
2022-09-27T16:37:07.152Z,1.95
2022-09-27T16:39:33.935Z,1.50
2022-09-27T16:42:04.959Z,1.92
2022-09-27T16:44:35.991Z,2.42
2022-09-27T16:47:04.160Z,2.20
2022-09-27T16:49:49.656Z,1.67
2022-09-27T16:52:16.594Z,2.17
2022-09-27T16:54:43.671Z,2.30
2022-09-27T16:57:10.767Z,1.77
2022-09-27T16:59:37.687Z,2.05
2022-09-27T17:02:05.611Z,2.45
2022-09-27T17:04:32.469Z,2.88
2022-09-27T17:06:59.357Z,2.42
2022-09-27T17:09:26.117Z,2.25
2022-09-27T17:11:53.016Z,2.22
2022-09-27T17:14:19.856Z,2.03
2022-09-27T17:16:48.337Z,1.58
2022-09-27T17:19:16.592Z,1.80
2022-09-27T17:21:43.599Z,1.85
2022-09-27T17:24:10.649Z,1.92
2022-09-27T17:26:37.876Z,2.15
2022-09-27T17:29:04.657Z,1.55
2022-09-27T17:31:34.661Z,2.13
2022-09-27T17:34:02.105Z,1.60
2022-09-27T17:36:32.755Z,2.05
2022-09-27T17:38:59.712Z,2.03
2022-09-27T17:41:28.019Z,2.42
2022-09-27T17:43:58.830Z,1.90
2022-09-27T17:46:25.717Z,1.73
2022-09-27T17:49:11.507Z,1.50
2022-09-27T17:51:40.781Z,1.50
2022-09-27T17:54:10.144Z,1.33
2022-09-27T17:56:41.865Z,1.25
2022-09-27T17:59:10.573Z,1.25
2022-09-27T18:01:39.020Z,1.30
2022-09-27T18:04:11.151Z,1.40
2022-09-27T18:06:42.994Z,1.55
2022-09-27T18:09:11.664Z,0.93
2022-09-27T18:11:39.182Z,1.25
2022-09-27T18:14:07.067Z,1.90
2022-09-27T18:16:37.032Z,1.48
2022-09-27T18:19:06.470Z,1.30
2022-09-27T18:21:34.043Z,1.58
2022-09-27T18:24:04.379Z,1.85
2022-09-27T18:26:32.463Z,2.08
2022-09-27T18:29:05.568Z,2.10
2022-09-27T18:31:32.575Z,1.35
2022-09-27T18:33:59.559Z,1.38
2022-09-27T18:36:27.548Z,1.40
2022-09-27T18:38:59.764Z,1.15
2022-09-27T18:41:28.681Z,1.50
2022-09-27T18:43:58.815Z,1.35
2022-09-27T18:46:35.373Z,1.25
2022-09-27T18:49:09.347Z,1.70
2022-09-27T18:51:43.614Z,1.70
2022-09-27T18:54:21.434Z,2.25
2022-09-27T18:56:50.267Z,1.88
2022-09-27T18:59:17.623Z,2.17
2022-09-27T19:01:45.936Z,2.08
2022-09-27T19:04:25.839Z,2.15
2022-09-27T19:06:54.722Z,2.88
2022-09-27T19:09:21.854Z,2.75
2022-09-27T19:11:48.978Z,2.42
2022-09-27T19:14:18.833Z,2.72
2022-09-27T19:16:47.457Z,2.30
2022-09-27T19:19:18.798Z,2.35
2022-09-27T19:21:46.344Z,2.22
2022-09-27T19:24:14.273Z,1.83
2022-09-27T19:26:41.344Z,1.52
2022-09-27T19:29:08.163Z,1.77
2022-09-27T19:31:35.979Z,2.25
2022-09-27T19:34:03.832Z,1.60
2022-09-27T19:36:30.994Z,1.50
2022-09-27T19:39:02.117Z,1.50
2022-09-27T19:41:29.493Z,2.38
2022-09-27T19:43:56.995Z,1.80
2022-09-27T19:46:25.397Z,1.60
2022-09-27T19:48:53.477Z,1.30
2022-09-27T19:51:24.898Z,1.58
2022-09-27T19:53:53.067Z,1.70
2022-09-27T19:56:21.208Z,2.13
2022-09-27T19:58:48.228Z,1.83
2022-09-27T20:01:20.612Z,1.65
2022-09-27T20:03:49.132Z,1.77
2022-09-27T20:06:18.165Z,1.58
2022-09-27T20:08:47.779Z,1.40
2022-09-27T20:11:18.287Z,1.13
2022-09-27T20:13:45.569Z,1.38
2022-09-27T20:16:13.913Z,0.93
2022-09-27T20:18:43.068Z,1.80
2022-09-27T20:21:09.915Z,1.30
2022-09-27T20:23:36.925Z,1.30
2022-09-27T20:26:07.620Z,2.13
2022-09-27T20:28:35.651Z,1.73
2022-09-27T20:31:04.419Z,1.70
2022-09-27T20:33:44.164Z,2.10
2022-09-27T20:36:23.736Z,2.17
2022-09-27T20:39:01.197Z,1.92
2022-09-27T20:41:31.421Z,2.72
2022-09-27T20:44:00.812Z,2.47
2022-09-27T20:46:27.789Z,1.38
2022-09-27T20:49:00.345Z,1.33
2022-09-27T20:51:28.278Z,0.90
2022-09-27T20:54:05.485Z,1.60
2022-09-27T20:56:49.029Z,1.08
2022-09-27T20:59:21.643Z,0.88
2022-09-27T21:01:51.125Z,1.08
2022-09-27T21:04:19.842Z,1.10
2022-09-27T21:06:46.824Z,1.10
2022-09-27T21:09:18.993Z,0.80
2022-09-27T21:11:48.292Z,1.33
2022-09-27T21:14:15.208Z,0.80
2022-09-27T21:16:42.330Z,0.88
2022-09-27T21:19:09.929Z,0.88
2022-09-27T21:21:37.055Z,1.08
2022-09-27T21:24:04.443Z,0.80
2022-09-27T21:26:32.834Z,1.00
2022-09-27T21:29:01.583Z,0.80
2022-09-27T21:31:31.955Z,1.00
2022-09-27T21:34:01.631Z,1.23
2022-09-27T21:36:30.821Z,0.98
2022-09-27T21:38:58.089Z,0.80
2022-09-27T21:41:26.066Z,0.70
2022-09-27T21:43:53.746Z,1.08
2022-09-27T21:46:25.890Z,0.65
2022-09-27T21:48:55.749Z,0.80
2022-09-27T21:51:27.531Z,1.08
2022-09-27T21:53:57.054Z,0.90
2022-09-27T21:56:26.085Z,0.52
2022-09-27T21:58:52.992Z,1.05
2022-09-27T22:01:25.268Z,0.88
2022-09-27T22:03:54.272Z,0.93
2022-09-27T22:06:24.219Z,1.10
2022-09-27T22:08:51.620Z,1.00
2022-09-27T22:11:24.535Z,1.02
2022-09-27T22:13:51.585Z,1.00
2022-09-27T22:16:20.317Z,1.00
2022-09-27T22:18:51.868Z,1.63
2022-09-27T22:21:21.292Z,1.48
2022-09-27T22:23:48.250Z,1.30
2022-09-27T22:26:17.890Z,1.08
2022-09-27T22:28:45.731Z,1.27
2022-09-27T22:31:18.567Z,1.30
2022-09-27T22:33:50.340Z,1.52
2022-09-27T22:36:17.875Z,1.30
2022-09-27T22:38:45.109Z,1.80
2022-09-27T22:41:12.380Z,1.85
2022-09-27T22:43:40.094Z,1.77
2022-09-27T22:46:07.189Z,2.28
2022-09-27T22:48:34.284Z,1.70
2022-09-27T22:51:13.393Z,1.80
2022-09-27T22:53:40.292Z,1.67
2022-09-27T22:56:10.473Z,2.05
2022-09-27T22:58:37.936Z,1.67
2022-09-27T23:01:22.499Z,1.90
2022-09-27T23:03:51.251Z,1.50
2022-09-27T23:06:19.395Z,1.67
2022-09-27T23:08:47.415Z,1.88
2022-09-27T23:11:20.084Z,1.50
2022-09-27T23:13:48.272Z,1.77
2022-09-27T23:16:25.727Z,1.50
2022-09-27T23:18:56.991Z,1.75
2022-09-27T23:21:26.105Z,1.23
2022-09-27T23:23:57.552Z,1.70
2022-09-27T23:26:26.921Z,1.40
2022-09-27T23:28:53.735Z,1.23
2022-09-27T23:31:22.241Z,1.35
2022-09-27T23:33:49.501Z,1.50
2022-09-27T23:36:18.631Z,1.40
2022-09-27T23:38:46.892Z,1.50
2022-09-27T23:41:15.185Z,1.65
2022-09-27T23:43:42.300Z,1.63
2022-09-27T23:46:10.245Z,2.05
2022-09-27T23:48:37.883Z,1.63
2022-09-27T23:51:07.337Z,1.73
2022-09-27T23:53:34.680Z,2.67
2022-09-27T23:56:07.511Z,1.95
2022-09-27T23:58:35.787Z,2.25
